Time;durP1;ratioP1;P1;durP2;ratioP2;P2;SDS_P1;SDS_P2;PMS_P1;PMS_P2;Temp;Humidity;BMP_temperature;BMP_pressure;BME280_temperature;BME280_humidity;BME280_pressure;Samples;Min_cycle;Max_cycle;Signal;HPM_P1;HPM_P2
2021/09/05 00:04:22;;;;;;;7.17;4.03;;;;;;;14.52;69.18;101449.75;5216792;56;21107;-90
2021/09/05 00:09:28;;;;;;;8.47;4.30;;;;;;;14.42;69.68;101450.97;5215879;56;21213;-89
2021/09/05 00:14:34;;;;;;;11.73;4.70;;;;;;;14.44;69.51;101457.52;5217744;56;21143;-88
2021/09/05 00:19:40;;;;;;;6.87;4.47;;;;;;;14.43;69.42;101448.67;5217231;56;21181;-90
2021/09/05 00:24:46;;;;;;;8.13;4.30;;;;;;;14.44;69.65;101457.52;5217692;56;22051;-89
2021/09/05 00:29:51;;;;;;;7.87;4.53;;;;;;;14.42;69.27;101455.45;5215455;56;21204;-87
2021/09/05 00:34:58;;;;;;;6.67;4.63;;;;;;;14.36;69.32;101463.90;5217527;56;21505;-87
2021/09/05 00:40:04;;;;;;;7.77;3.80;;;;;;;14.26;69.63;101470.41;5217863;56;21170;-88
2021/09/05 00:45:11;;;;;;;10.13;4.60;;;;;;;14.22;69.77;101474.27;5215438;56;21486;-89
2021/09/05 00:50:17;;;;;;;6.87;3.00;;;;;;;14.19;69.79;101479.00;5216062;56;21146;-89
2021/09/05 00:55:24;;;;;;;7.40;4.40;;;;;;;14.19;69.97;101478.52;5217221;56;21725;-89
2021/09/05 01:00:32;;;;;;;4.40;4.00;;;;;;;14.11;70.18;101476.91;5215789;55;21168;-90
2021/09/05 01:05:40;;;;;;;6.47;3.80;;;;;;;14.08;70.17;101478.47;5220066;56;21650;-90
2021/09/05 01:10:46;;;;;;;13.93;4.10;;;;;;;14.09;70.24;101480.17;5220429;56;21193;-87
2021/09/05 01:15:51;;;;;;;6.07;3.30;;;;;;;14.08;70.21;101482.47;5217542;56;21608;-87
2021/09/05 01:20:59;;;;;;;8.43;4.43;;;;;;;14.08;70.33;101484.64;5219001;56;21083;-90
2021/09/05 01:26:26;;;;;;;6.83;4.15;;;;;;;14.04;70.20;101487.20;5219707;56;21504;-87
2021/09/05 01:31:50;;;;;;;;;;;;;;;13.96;70.19;101490.91;5220827;56;21160;-90
2021/09/05 01:37:09;;;;;;;7.20;3.53;;;;;;;13.92;70.29;101501.41;5190855;56;20433;-88
2021/09/05 01:42:22;;;;;;;5.12;3.08;;;;;;;13.86;70.52;101503.70;5165041;56;21233;-87
2021/09/05 01:47:39;;;;;;;6.00;3.20;;;;;;;13.84;70.82;101501.64;5211949;56;21189;-89
2021/09/05 01:53:02;;;;;;;5.22;3.20;;;;;;;13.81;70.96;101504.52;5220117;56;21237;-87
2021/09/05 01:58:25;;;;;;;;;;;;;;;13.76;70.95;101506.67;5224003;56;21150;-90
2021/09/05 02:03:48;;;;;;;5.47;2.90;;;;;;;13.75;71.09;101512.47;5210098;56;20396;-90
2021/09/05 02:08:59;;;;;;;2.73;2.20;;;;;;;13.73;71.07;101507.30;5201966;56;21206;-87
2021/09/05 02:14:21;;;;;;;;;;;;;;;13.72;71.12;101517.56;5208296;56;21526;-88
2021/09/05 02:19:29;;;;;;;7.80;2.57;;;;;;;13.63;71.56;101518.22;5196404;56;20365;-90
2021/09/05 02:24:55;;;;;;;4.17;2.60;;;;;;;13.57;71.88;101529.81;5182786;56;21725;-87
2021/09/05 02:30:12;;;;;;;3.77;2.77;;;;;;;13.51;71.87;101535.09;5200048;56;21166;-87
2021/09/05 02:35:25;;;;;;;6.07;3.70;;;;;;;13.50;72.21;101528.08;5187308;56;21072;-88
2021/09/05 02:40:38;;;;;;;5.37;2.83;;;;;;;13.53;72.27;101532.33;5143007;56;21158;-90
2021/09/05 02:45:46;;;;;;;5.23;2.50;;;;;;;13.51;72.53;101533.76;5206250;56;21150;-91
2021/09/05 02:51:02;;;;;;;4.80;2.50;;;;;;;13.54;72.59;101536.67;5198359;56;21216;-89
2021/09/05 02:56:27;;;;;;;5.27;2.87;;;;;;;13.60;72.62;101533.55;5161690;56;21102;-88
2021/09/05 03:01:50;;;;;;;5.60;2.90;;;;;;;13.60;72.71;101535.73;5206138;56;21158;-91
2021/09/05 03:07:14;;;;;;;2.98;2.40;;;;;;;13.57;72.83;101533.80;5207148;56;21174;-87
2021/09/05 03:12:23;;;;;;;4.10;2.47;;;;;;;13.50;73.01;101534.72;5201508;56;21162;-89
2021/09/05 03:17:36;;;;;;;4.57;2.83;;;;;;;13.49;72.81;101533.50;5202065;56;21075;-87
2021/09/05 03:22:44;;;;;;;3.87;2.57;;;;;;;13.49;72.91;101548.12;5202958;56;21138;-87
2021/09/05 03:27:55;;;;;;;3.47;2.57;;;;;;;13.43;72.96;101549.91;5203225;56;21123;-90
2021/09/05 03:33:18;;;;;;;3.02;2.37;;;;;;;13.37;73.41;101561.83;5206625;56;21084;-87
2021/09/05 03:38:42;;;;;;;6.62;3.42;;;;;;;13.35;73.51;101559.76;5205580;56;21158;-87
2021/09/05 03:43:48;;;;;;;4.13;3.03;;;;;;;13.29;73.72;101549.59;5204234;56;21147;-87
2021/09/05 03:49:10;;;;;;;7.60;2.90;;;;;;;13.29;74.08;101556.23;5197986;56;21146;-90
2021/09/05 03:54:17;;;;;;;6.00;2.80;;;;;;;13.28;74.24;101557.19;5158854;56;21071;-89
2021/09/05 03:59:24;;;;;;;8.80;3.70;;;;;;;13.28;74.31;101568.67;5206508;56;21194;-90
2021/09/05 04:04:30;;;;;;;5.90;3.17;;;;;;;13.31;74.46;101570.23;5215068;56;21190;-90
2021/09/05 04:14:59;;;;;;;7.97;3.02;;;;;;;13.25;74.78;101579.99;5221963;56;21139;-89
2021/09/05 04:20:06;;;;;;;6.73;2.67;;;;;;;13.25;74.79;101583.97;5223567;56;21206;-91
2021/09/05 04:25:13;;;;;;;5.93;3.10;;;;;;;13.20;74.90;101588.28;5220362;56;22012;-89
2021/09/05 04:30:20;;;;;;;9.13;2.87;;;;;;;13.14;75.12;101597.97;5220397;56;21689;-89
2021/09/05 04:35:26;;;;;;;4.77;2.30;;;;;;;13.13;75.40;101601.61;5223113;56;21176;-93
2021/09/05 04:40:31;;;;;;;5.33;3.17;;;;;;;13.12;75.34;101610.54;5222730;56;21135;-87
2021/09/05 04:45:37;;;;;;;5.57;2.70;;;;;;;13.07;75.30;101606.50;5222526;56;21169;-92
2021/09/05 04:50:43;;;;;;;5.23;2.93;;;;;;;13.01;75.51;101609.95;5222301;56;21080;-89
2021/09/05 04:55:49;;;;;;;3.77;2.80;;;;;;;12.97;75.85;101611.14;5222449;56;21197;-87
2021/09/05 05:00:54;;;;;;;4.23;2.53;;;;;;;13.02;75.92;101618.77;5223975;56;21146;-90
2021/09/05 05:06:00;;;;;;;3.70;2.73;;;;;;;13.02;75.94;101628.91;5221257;56;21173;-92
2021/09/05 05:11:06;;;;;;;4.73;2.60;;;;;;;12.98;75.71;101632.76;5181680;56;21154;-91
2021/09/05 05:16:12;;;;;;;7.87;2.90;;;;;;;13.00;75.71;101637.45;5198307;56;21670;-87
2021/09/05 05:21:18;;;;;;;8.67;2.90;;;;;;;12.99;75.59;101641.06;5221399;56;21162;-91
2021/09/05 05:26:26;;;;;;;5.63;2.80;;;;;;;12.99;75.63;101650.36;5221805;56;22259;-89
2021/09/05 05:31:32;;;;;;;5.00;2.90;;;;;;;13.01;75.84;101648.45;5220562;56;21098;-90
2021/09/05 05:36:38;;;;;;;7.87;3.30;;;;;;;13.14;75.87;101654.26;5221255;56;21705;-92
2021/09/05 05:41:44;;;;;;;5.20;2.37;;;;;;;13.26;75.14;101654.75;5222585;56;21130;-89
2021/09/05 05:46:50;;;;;;;4.13;2.50;;;;;;;13.36;74.47;101655.78;5220924;56;21158;-89
2021/09/05 05:51:56;;;;;;;6.33;3.37;;;;;;;13.46;73.88;101659.48;5221014;56;21181;-90
2021/09/05 05:57:01;;;;;;;7.83;2.90;;;;;;;13.56;73.41;101665.85;5223098;56;21202;-88
2021/09/05 06:02:07;;;;;;;7.50;2.67;;;;;;;13.65;72.98;101658.53;5220274;56;21170;-87
2021/09/05 06:07:13;;;;;;;4.03;2.17;;;;;;;13.77;72.77;101663.91;5209586;56;21189;-88
2021/09/05 06:12:19;;;;;;;4.13;2.93;;;;;;;13.85;71.99;101670.86;5210773;56;21474;-89
2021/09/05 06:17:25;;;;;;;3.53;1.83;;;;;;;13.95;71.78;101670.55;5208394;56;21146;-90
2021/09/05 06:22:31;;;;;;;2.90;1.93;;;;;;;14.06;71.42;101670.59;5208842;56;21607;-92
2021/09/05 06:27:37;;;;;;;3.97;2.13;;;;;;;14.21;71.37;101669.46;5208383;56;21083;-90
2021/09/05 06:32:43;;;;;;;2.60;2.00;;;;;;;14.34;70.40;101671.60;5209396;56;21719;-87
2021/09/05 06:37:48;;;;;;;1.77;1.67;;;;;;;14.51;70.21;101669.03;5208721;56;21150;-87
2021/09/05 06:42:55;;;;;;;3.87;1.80;;;;;;;14.67;70.03;101674.01;5206377;56;21638;-90
2021/09/05 06:48:02;;;;;;;2.20;2.00;;;;;;;14.85;68.25;101671.75;5204599;56;21166;-90
2021/09/05 06:53:08;;;;;;;2.93;1.90;;;;;;;15.03;69.07;101684.50;5204923;56;21173;-89
2021/09/05 06:58:14;;;;;;;1.83;1.53;;;;;;;15.19;67.64;101677.98;5207224;56;21191;-88
2021/09/05 07:03:20;;;;;;;6.30;2.17;;;;;;;15.34;64.95;101686.09;5207583;56;21096;-89
2021/09/05 07:08:26;;;;;;;2.40;1.40;;;;;;;15.44;66.19;101699.05;5202410;55;21068;-90
2021/09/05 07:13:32;;;;;;;2.03;1.83;;;;;;;15.59;65.34;101711.68;5207795;56;22151;-90
2021/09/05 07:18:39;;;;;;;2.87;1.63;;;;;;;15.77;65.36;101713.73;5206998;56;21142;-88
2021/09/05 07:23:44;;;;;;;2.80;1.60;;;;;;;15.99;64.95;101720.86;5202689;56;21142;-89
2021/09/05 07:28:50;;;;;;;4.57;1.90;;;;;;;16.24;64.00;101725.03;5201217;56;21194;-88
2021/09/05 07:33:56;;;;;;;3.23;1.60;;;;;;;16.45;63.73;101738.44;5204766;56;21150;-88
2021/09/05 07:39:02;;;;;;;10.63;2.33;;;;;;;16.57;62.75;101736.56;5207350;56;21632;-90
2021/09/05 07:44:08;;;;;;;4.77;1.90;;;;;;;16.66;61.92;101741.16;5206311;56;21157;-89
2021/09/05 07:49:14;;;;;;;1.93;1.60;;;;;;;16.76;61.94;101753.64;5207075;56;21154;-88
2021/09/05 07:54:20;;;;;;;1.67;1.57;;;;;;;16.90;62.14;101746.28;5204704;56;21158;-89
2021/09/05 07:59:26;;;;;;;1.97;1.70;;;;;;;17.08;60.88;101752.25;5203655;56;21203;-89
2021/09/05 08:04:31;;;;;;;1.50;1.40;;;;;;;17.28;61.60;101764.38;5207928;56;21131;-88
2021/09/05 08:09:37;;;;;;;4.10;1.70;;;;;;;17.47;61.61;101763.15;5219946;56;21185;-91
2021/09/05 08:14:43;;;;;;;3.60;1.43;;;;;;;17.65;61.28;101764.25;5224413;56;21095;-92
2021/09/05 08:19:50;;;;;;;2.07;1.60;;;;;;;17.78;60.06;101766.20;5224143;56;21227;-88
2021/09/05 08:24:56;;;;;;;2.50;1.30;;;;;;;17.88;57.82;101770.24;5225573;56;21192;-91
2021/09/05 08:30:03;;;;;;;7.03;2.17;;;;;;;17.96;58.83;101768.24;5229170;56;21622;-92
2021/09/05 08:35:10;;;;;;;2.60;1.57;;;;;;;18.02;57.18;101779.75;5222014;56;21165;-93
2021/09/05 08:40:17;;;;;;;1.70;1.60;;;;;;;18.04;56.92;101769.23;5222351;56;21171;-92
2021/09/05 08:45:22;;;;;;;5.30;1.40;;;;;;;18.00;56.83;101774.53;5220097;56;21067;-88
2021/09/05 08:50:30;;;;;;;9.37;1.27;;;;;;;18.09;57.26;101777.72;5222179;56;21158;-90
2021/09/05 08:55:35;;;;;;;1.53;1.43;;;;;;;18.15;57.58;101779.02;5220030;56;21971;-90
2021/09/05 09:00:43;;;;;;;4.97;1.93;;;;;;;18.30;56.06;101788.34;5220902;56;21181;-89
2021/09/05 09:05:53;;;;;;;5.60;1.50;;;;;;;18.34;55.18;101790.23;5220172;55;21585;-89
2021/09/05 09:11:02;;;;;;;2.10;1.70;;;;;;;18.38;55.11;101793.84;5219049;56;21602;-88
2021/09/05 09:16:11;;;;;;;2.57;1.50;;;;;;;18.50;56.44;101783.84;5218235;56;21210;-89
2021/09/05 09:21:20;;;;;;;7.40;2.00;;;;;;;18.67;56.32;101781.84;5217366;56;21138;-88
2021/09/05 09:26:26;;;;;;;1.40;1.30;;;;;;;18.84;55.01;101789.67;5219025;56;21600;-87
2021/09/05 09:31:33;;;;;;;3.40;1.50;;;;;;;18.92;53.97;101789.83;5218245;56;21146;-89
2021/09/05 09:36:41;;;;;;;1.52;1.15;;;;;;;18.97;55.20;101786.20;5215742;56;21158;-89
2021/09/05 09:41:47;;;;;;;1.67;1.55;;;;;;;19.10;55.45;101790.77;5216315;56;21098;-89
2021/09/05 09:46:53;;;;;;;1.53;1.27;;;;;;;19.18;55.08;101776.16;5217417;56;21166;-88
2021/09/05 09:52:00;;;;;;;3.37;1.70;;;;;;;19.26;53.85;101778.95;5216162;56;21545;-88
2021/09/05 09:57:07;;;;;;;3.47;1.90;;;;;;;19.36;53.35;101782.98;5218235;56;21177;-88
2021/09/05 10:02:17;;;;;;;7.55;1.90;;;;;;;19.45;52.59;101776.72;5217147;56;21632;-86
2021/09/05 10:07:25;;;;;;;2.40;1.67;;;;;;;19.56;54.03;101780.59;5217212;56;21216;-86
2021/09/05 10:12:33;;;;;;;3.87;2.00;;;;;;;19.71;53.51;101785.52;5217733;56;21154;-83
2021/09/05 10:17:40;;;;;;;1.55;1.45;;;;;;;19.78;51.24;101782.08;5217193;56;21138;-83
2021/09/05 10:22:46;;;;;;;6.92;1.37;;;;;;;19.79;51.53;101773.03;5219290;56;21153;-83
2021/09/05 10:27:53;;;;;;;2.22;1.37;;;;;;;19.77;51.12;101774.17;5215304;56;21815;-83
2021/09/05 10:33:02;;;;;;;1.35;0.95;;;;;;;19.84;51.18;101764.05;5216803;56;21663;-83
2021/09/05 10:38:18;;;;;;;2.85;1.70;;;;;;;19.97;50.83;101760.51;5214711;56;21158;-83
2021/09/05 10:43:26;;;;;;;2.12;1.35;;;;;;;20.01;50.72;101751.14;5216253;56;21695;-81
2021/09/05 10:48:41;;;;;;;4.97;1.50;;;;;;;20.18;52.25;101758.03;5210549;56;21195;-82
2021/09/05 10:53:59;;;;;;;1.75;1.52;;;;;;;20.40;51.95;101758.14;5215373;56;21210;-81
2021/09/05 10:59:12;;;;;;;4.58;1.50;;;;;;;20.52;50.03;101758.26;5215978;56;21168;-83
2021/09/05 11:04:28;;;;;;;2.40;1.02;;;;;;;20.49;49.52;101758.56;5216144;56;21158;-83
2021/09/05 11:09:40;;;;;;;1.65;1.37;;;;;;;20.55;49.25;101755.27;5217193;55;21150;-82
2021/09/05 11:14:53;;;;;;;6.45;1.65;;;;;;;20.67;48.82;101754.03;5215763;56;21150;-81
2021/09/05 11:20:09;;;;;;;2.98;1.57;;;;;;;20.72;49.56;101754.42;5216328;56;21229;-81
2021/09/05 11:25:23;;;;;;;2.92;1.40;;;;;;;20.85;48.61;101749.98;5216258;56;21169;-82
2021/09/05 11:30:34;;;;;;;1.85;1.20;;;;;;;20.93;49.16;101748.19;5215768;56;21150;-81
2021/09/05 11:35:51;;;;;;;2.62;1.57;;;;;;;21.09;49.78;101747.47;5215717;56;21087;-83
2021/09/05 11:40:58;;;;;;;1.65;1.50;;;;;;;21.21;48.94;101742.22;5215434;56;21153;-80
2021/09/05 11:46:18;;;;;;;2.52;1.42;;;;;;;21.24;48.62;101743.23;5215112;56;21193;-83
2021/09/05 11:51:24;;;;;;;2.65;1.72;;;;;;;21.37;48.61;101744.17;5216447;56;21221;-83
2021/09/05 11:56:32;;;;;;;2.08;1.90;;;;;;;21.46;48.66;101743.70;5215619;56;21207;-83
2021/09/05 12:01:53;;;;;;;3.90;1.60;;;;;;;21.62;47.67;101749.17;5218187;56;21150;-82
2021/09/05 12:07:00;;;;;;;3.98;1.65;;;;;;;21.57;47.83;101749.64;5216987;56;21242;-83
2021/09/05 12:12:06;;;;;;;3.25;1.95;;;;;;;21.61;46.97;101743.44;5219518;56;21185;-83
2021/09/05 12:17:25;;;;;;;6.53;1.40;;;;;;;21.57;47.67;101750.14;5215569;56;21158;-83
2021/09/05 12:22:56;;;;;;;1.47;1.37;;;;;;;21.70;47.66;101741.95;5215177;56;21664;-83
2021/09/05 12:28:08;;;;;;;3.20;1.92;;;;;;;21.79;47.29;101742.86;5216927;56;21151;-83
2021/09/05 12:33:27;;;;;;;1.60;1.50;;;;;;;21.86;45.94;101744.38;5217991;56;21179;-83
2021/09/05 12:38:37;;;;;;;1.65;1.35;;;;;;;21.91;46.61;101733.47;5216324;56;21200;-82
2021/09/05 12:44:00;;;;;;;3.60;2.40;;;;;;;21.90;45.24;101733.12;4557747;56;1143445;-84
2021/09/05 12:49:24;;;;;;;2.00;1.78;;;;;;;21.95;47.07;101728.10;4002741;56;1147972;-84
2021/09/05 12:54:30;;;;;;;2.67;2.00;;;;;;;22.02;46.30;101726.95;4019890;56;1138933;-83
2021/09/05 12:59:37;;;;;;;2.65;1.40;;;;;;;22.14;46.56;101724.82;4019808;56;1139297;-84
2021/09/05 13:04:43;;;;;;;2.25;1.95;;;;;;;22.28;45.42;101716.09;4020332;56;1139085;-83
2021/09/05 13:09:49;;;;;;;2.72;2.05;;;;;;;22.29;46.25;101727.21;4016237;56;1139073;-83
2021/09/05 13:14:55;;;;;;;5.42;1.95;;;;;;;22.27;44.11;101719.79;4017687;55;1138982;-82
2021/09/05 13:20:01;;;;;;;5.72;1.98;;;;;;;22.18;44.68;101715.37;4025735;56;1138929;-84
2021/09/05 13:25:08;;;;;;;3.90;1.82;;;;;;;22.20;44.97;101707.97;4001566;56;1139186;-83
2021/09/05 13:30:19;;;;;;;5.00;1.80;;;;;;;22.15;44.20;101714.38;4018514;56;1139050;-84
2021/09/05 13:35:26;;;;;;;4.00;1.90;;;;;;;22.32;46.71;101703.44;4031439;56;1148156;-84
2021/09/05 13:40:33;;;;;;;3.42;1.70;;;;;;;22.41;45.96;101702.95;4558838;56;1139050;-85
2021/09/05 13:45:42;;;;;;;1.98;1.82;;;;;;;22.36;45.29;101703.45;3991529;56;1139102;-82
2021/09/05 13:50:48;;;;;;;3.10;2.00;;;;;;;22.38;45.09;101701.44;4019329;56;1139064;-84
2021/09/05 13:55:55;;;;;;;5.25;1.40;;;;;;;22.42;44.68;101694.70;4058219;56;1140597;-83
2021/09/05 14:01:01;;;;;;;6.75;1.80;;;;;;;22.39;44.88;101693.69;4019489;56;1139021;-82
2021/09/05 14:06:08;;;;;;;3.98;1.77;;;;;;;22.39;44.19;101695.03;4019987;56;1138891;-81
2021/09/05 14:11:17;;;;;;;9.13;1.98;;;;;;;22.42;44.78;101699.25;4019958;56;1138910;-82
2021/09/05 14:16:24;;;;;;;1.72;1.60;;;;;;;22.47;45.49;101699.57;4023175;56;1148129;-83
2021/09/05 14:21:31;;;;;;;1.80;1.70;;;;;;;22.46;43.60;101693.84;4001097;56;1139016;-82
2021/09/05 14:26:38;;;;;;;3.80;1.55;;;;;;;22.44;44.50;101699.94;4019022;56;1139090;-82
2021/09/05 14:58:30;;;;;;;3.05;1.70;;;;;;;22.52;44.16;101693.18;4013153;55;1138968;-82
2021/09/05 15:14:07;;;;;;;3.05;2.22;;;;;;;22.37;43.54;101688.96;4044018;56;1139121;-83
2021/09/05 15:19:15;;;;;;;3.93;2.20;;;;;;;22.32;43.01;101688.61;4028150;56;1144155;-84
2021/09/05 15:24:22;;;;;;;2.40;1.85;;;;;;;22.23;43.16;101682.05;4014444;56;1139022;-84
2021/09/05 15:29:39;;;;;;;7.72;2.17;;;;;;;22.16;43.34;101680.50;4011338;56;1138949;-84
2021/09/05 15:48:47;;;;;;;6.22;2.00;;;;;;;22.09;43.26;101679.00;4001062;56;1139045;-85
2021/09/05 15:55:42;;;;;;;5.42;1.87;;;;;;;21.84;44.27;101688.52;5220658;56;21620;-87
2021/09/05 16:00:51;;;;;;;5.00;2.20;;;;;;;21.79;44.66;101685.45;5218298;56;21509;-88
2021/09/05 16:16:28;;;;;;;2.80;2.27;;;;;;;21.62;45.23;101674.63;5220028;56;21087;-86
2021/09/05 16:21:31;;;;;;;8.03;5.37;;;;;;;21.55;44.89;101676.77;5220403;56;21438;-85
2021/09/05 16:26:37;;;;;;;8.28;4.55;;;;;;;21.51;44.89;101675.43;5218046;56;21122;-86
2021/09/05 16:31:44;;;;;;;6.15;2.87;;;;;;;21.48;44.55;101681.13;5218712;56;21241;-87
2021/09/05 16:37:13;;;;;;;1.98;1.77;;;;;;;21.38;44.66;101678.08;5220645;56;22067;-86
2021/09/05 16:42:05;;;;;;;1.98;1.87;;;;;;;21.25;44.50;101680.84;5217417;56;21592;-85
2021/09/05 16:47:11;;;;;;;14.98;1.80;;;;;;;21.18;45.16;101679.27;5218489;56;21588;-85
2021/09/05 16:52:16;;;;;;;3.40;1.62;;;;;;;21.10;45.31;101690.47;5219311;56;21197;-85
2021/09/05 16:57:22;;;;;;;3.98;1.20;;;;;;;20.94;45.16;101697.44;5218156;56;21509;-86
2021/09/05 17:02:29;;;;;;;1.67;1.40;;;;;;;20.73;45.26;101692.08;5219079;56;21175;-87
2021/09/05 17:07:37;;;;;;;2.47;1.37;;;;;;;20.50;45.29;101692.56;5217852;56;21505;-86
2021/09/05 17:12:44;;;;;;;2.55;1.72;;;;;;;20.32;45.52;101696.56;5218080;56;21127;-86
2021/09/05 17:17:51;;;;;;;4.50;2.15;;;;;;;20.19;45.72;101694.76;5214757;56;21647;-88
2021/09/05 17:22:57;;;;;;;3.92;1.55;;;;;;;20.08;45.46;101692.30;5218313;56;21118;-87
2021/09/05 17:28:04;;;;;;;1.70;1.60;;;;;;;19.95;45.94;101691.33;5220975;56;21176;-88
2021/09/05 17:33:12;;;;;;;2.47;1.60;;;;;;;19.82;45.75;101702.94;5215992;56;21194;-86
2021/09/05 17:38:18;;;;;;;4.50;2.02;;;;;;;19.68;45.97;101710.16;5218378;56;21202;-85
2021/09/05 17:43:25;;;;;;;4.05;2.00;;;;;;;19.57;45.90;101714.34;5217279;56;21210;-88
2021/09/05 17:48:32;;;;;;;9.43;2.80;;;;;;;19.44;46.25;101709.79;5218571;56;21178;-88
2021/09/05 17:53:39;;;;;;;8.43;2.22;;;;;;;19.31;46.46;101715.00;5218408;55;21103;-88
2021/09/05 17:58:45;;;;;;;7.25;2.50;;;;;;;19.21;46.74;101718.22;5217215;56;21134;-87
2021/09/05 18:03:51;;;;;;;7.62;2.85;;;;;;;19.10;46.84;101725.07;5218709;56;21499;-87
2021/09/05 18:08:58;;;;;;;10.28;2.67;;;;;;;19.02;46.65;101732.16;5218403;56;21153;-87
2021/09/05 18:14:04;;;;;;;3.65;2.10;;;;;;;18.91;46.95;101727.32;5218541;56;21742;-88
2021/09/05 18:19:09;;;;;;;9.93;2.60;;;;;;;18.79;47.05;101728.97;4067861;56;1143104;-87
2021/09/05 18:24:16;;;;;;;7.22;2.60;;;;;;;18.71;47.29;101732.34;3999925;56;1149980;-85
2021/09/05 18:29:23;;;;;;;12.47;2.37;;;;;;;18.59;47.28;101737.50;4136020;56;1148352;-87
2021/09/05 18:34:30;;;;;;;1.92;1.50;;;;;;;18.35;47.33;101731.66;4036960;56;1141010;-87
2021/09/05 18:39:36;;;;;;;2.10;1.37;;;;;;;18.27;47.70;101736.39;4280785;56;1254213;-87
2021/09/05 18:44:42;;;;;;;2.02;1.42;;;;;;;18.04;47.94;101741.13;4033939;56;1138957;-87
2021/09/05 18:49:50;;;;;;;3.48;1.30;;;;;;;17.85;48.42;101753.14;4065479;56;1143880;-88
2021/09/05 18:54:56;;;;;;;2.83;1.70;;;;;;;17.76;48.67;101748.09;4041429;56;1138941;-88
2021/09/05 19:00:05;;;;;;;4.63;1.33;;;;;;;17.66;48.79;101743.70;4139751;55;1138878;-86
2021/09/05 19:05:12;;;;;;;1.95;1.60;;;;;;;17.65;49.01;101744.19;4118633;56;1138866;-86
2021/09/05 19:10:19;;;;;;;2.17;1.50;;;;;;;17.57;49.12;101758.19;4055523;56;1142477;-87
2021/09/05 19:15:26;;;;;;;3.27;1.37;;;;;;;17.47;49.33;101757.31;4016491;56;1138924;-87
2021/09/05 19:20:34;;;;;;;1.75;1.55;;;;;;;17.47;49.57;101759.98;4017305;56;1141787;-86
2021/09/05 19:25:39;;;;;;;3.02;1.82;;;;;;;17.43;49.95;101761.22;4001867;56;1142632;-88
2021/09/05 19:30:46;;;;;;;3.10;2.12;;;;;;;17.34;49.92;101767.87;4016989;56;1139012;-86
2021/09/05 19:35:53;;;;;;;6.75;2.17;;;;;;;17.25;50.16;101760.66;4020330;56;1139018;-86
2021/09/05 19:40:59;;;;;;;5.72;2.15;;;;;;;17.14;50.45;101763.73;4016669;56;1139206;-87
2021/09/05 19:46:06;;;;;;;6.60;2.50;;;;;;;16.95;50.49;101756.09;3983838;56;1146362;-86
2021/09/05 19:51:13;;;;;;;1.87;1.77;;;;;;;16.88;50.97;101768.63;4018577;56;1139041;-88
2021/09/05 19:56:20;;;;;;;6.90;2.50;;;;;;;16.74;51.16;101766.76;4999347;56;1136731;-87
2021/09/05 20:01:28;;;;;;;2.37;1.83;;;;;;;16.66;51.25;101768.72;5215535;56;21954;-88
2021/09/05 20:09:00;;;;;;;5.57;2.27;;;;;;;16.60;51.46;101775.89;5321690;54;21579;-87
2021/09/05 20:14:06;;;;;;;12.07;3.60;;;;;;;16.51;51.61;101773.48;5255112;56;21249;-86
2021/09/05 20:19:13;;;;;;;5.97;3.57;;;;;;;16.48;51.59;101771.58;5254760;56;21139;-86
2021/09/05 20:24:19;;;;;;;5.47;3.03;;;;;;;16.51;51.72;101770.81;5258579;56;21184;-86
2021/09/05 20:29:25;;;;;;;5.03;3.03;;;;;;;16.52;51.77;101769.84;5252794;56;22060;-87
2021/09/05 20:34:31;;;;;;;4.23;2.80;;;;;;;16.51;51.79;101770.81;5255220;56;21954;-87
2021/09/05 20:39:37;;;;;;;3.07;2.77;;;;;;;16.48;51.69;101776.91;5255653;56;21570;-87
2021/09/05 20:44:43;;;;;;;7.43;2.37;;;;;;;16.41;51.74;101779.23;5258593;56;21757;-88
2021/09/05 20:49:49;;;;;;;4.70;2.97;;;;;;;16.31;51.97;101786.31;5256291;56;21139;-87
2021/09/05 20:54:55;;;;;;;4.47;2.63;;;;;;;16.23;52.14;101783.88;5254540;56;21216;-87
2021/09/05 21:00:01;;;;;;;5.30;2.87;;;;;;;16.18;52.54;101784.27;5259154;56;22202;-88
2021/09/05 21:05:09;;;;;;;8.73;2.53;;;;;;;16.07;52.58;101781.12;5253007;56;21171;-87
2021/09/05 21:10:14;;;;;;;4.37;2.70;;;;;;;16.00;52.93;101771.08;5230521;56;21631;-87
2021/09/05 21:15:20;;;;;;;12.97;2.87;;;;;;;15.95;53.24;101780.78;5229966;56;21665;-87
2021/09/05 21:20:26;;;;;;;6.30;3.17;;;;;;;15.90;53.27;101777.62;5225848;56;21478;-86
2021/09/05 21:25:33;;;;;;;8.03;3.87;;;;;;;15.80;53.54;101776.18;5226406;56;21608;-87
2021/09/05 21:30:38;;;;;;;5.47;3.23;;;;;;;15.71;53.69;101780.92;5226158;56;21196;-87
2021/09/05 21:35:44;;;;;;;10.47;3.67;;;;;;;15.68;53.95;101778.98;5227951;56;21187;-87
2021/09/05 21:40:49;;;;;;;9.27;3.77;;;;;;;15.64;54.07;101779.70;5227051;56;21191;-87
2021/09/05 21:45:55;;;;;;;7.50;2.90;;;;;;;15.60;54.21;101779.56;5224460;56;21235;-88
2021/09/05 21:51:01;;;;;;;4.27;2.90;;;;;;;15.51;54.25;101776.75;5228470;56;21157;-88
2021/09/05 21:56:07;;;;;;;5.23;2.73;;;;;;;15.43;54.51;101784.84;5229292;56;21116;-88
2021/09/05 22:01:13;;;;;;;3.80;3.00;;;;;;;15.38;54.67;101785.71;5225019;56;21144;-86
2021/09/05 22:06:18;;;;;;;6.23;3.17;;;;;;;15.33;54.86;101780.36;5223771;56;21127;-87
2021/09/05 22:11:24;;;;;;;4.30;3.50;;;;;;;15.24;55.08;101783.27;5200596;56;21195;-87
2021/09/05 22:16:30;;;;;;;4.13;3.10;;;;;;;15.13;55.46;101789.88;5201322;56;21173;-87
2021/09/05 22:21:36;;;;;;;4.47;3.03;;;;;;;15.05;55.61;101790.97;5199450;56;21570;-87
2021/09/05 22:26:41;;;;;;;5.40;3.40;;;;;;;14.99;55.93;101799.41;5202069;56;21709;-88
2021/09/05 22:31:47;;;;;;;11.63;3.83;;;;;;;14.93;56.09;101792.75;5202104;56;21168;-87
2021/09/05 22:36:53;;;;;;;7.07;3.03;;;;;;;14.87;56.27;101799.02;5203789;56;21203;-88
2021/09/05 22:41:59;;;;;;;4.37;3.00;;;;;;;14.81;56.48;101796.83;5200038;56;21538;-87
2021/09/05 22:47:05;;;;;;;5.43;3.53;;;;;;;14.73;56.66;101798.72;5203787;56;21609;-87
2021/09/05 22:52:11;;;;;;;9.33;2.87;;;;;;;14.68;56.82;101803.05;5204160;56;21164;-88
2021/09/05 22:57:17;;;;;;;4.93;3.37;;;;;;;14.59;56.87;101797.08;5202104;56;21700;-86
2021/09/05 23:02:22;;;;;;;4.53;2.80;;;;;;;14.50;57.07;101800.92;5203176;56;21191;-87
2021/09/05 23:07:27;;;;;;;3.87;2.90;;;;;;;14.39;57.33;101805.16;5208079;56;21218;-86
2021/09/05 23:29:34;;;;;;;3.93;3.03;;;;;;;14.19;58.04;101807.12;5222645;56;21317;-87
2021/09/05 23:34:40;;;;;;;5.87;2.97;;;;;;;14.09;58.09;101799.41;5227547;56;21569;-87
2021/09/05 23:39:46;;;;;;;6.27;2.90;;;;;;;13.99;58.21;101793.05;5228729;56;21155;-87
2021/09/05 23:44:52;;;;;;;3.47;2.70;;;;;;;13.91;58.43;101801.56;5227066;56;21620;-88
2021/09/05 23:49:59;;;;;;;4.43;2.60;;;;;;;13.82;58.58;101796.91;5226121;56;21714;-87
2021/09/05 23:55:06;;;;;;;4.30;2.73;;;;;;;13.74;58.97;101784.66;5225492;56;21659;-88
